Time;durP1;ratioP1;P1;durP2;ratioP2;P2;SDS_P1;SDS_P2;PMS_P1;PMS_P2;Temp;Humidity;BMP_temperature;BMP_pressure;BME280_temperature;BME280_humidity;BME280_pressure;Samples;Min_cycle;Max_cycle;Signal;HPM_P1;HPM_P2
2023/08/18 00:01:54;;;;;;;;;;;;;;;22.46;nan;100317.25;4973283;28;20411;-87
2023/08/18 00:04:19;;;;;;;;;;;;;;;22.41;nan;100310.94;4967852;28;19926;-85
2023/08/18 00:06:45;;;;;;;;;;;;;;;22.36;nan;100324.28;4959963;28;19915;-87
2023/08/18 00:09:10;;;;;;;;;;;;;;;22.32;nan;100326.63;4959506;28;19918;-86
2023/08/18 00:11:36;;;;;;;;;;;;;;;22.27;nan;100313.03;4975478;28;19914;-86
2023/08/18 00:14:01;;;;;;;;;;;;;;;22.24;nan;100327.78;4963099;28;19919;-86
2023/08/18 00:16:26;;;;;;;;;;;;;;;22.23;nan;100285.72;4961407;28;19953;-85
2023/08/18 00:18:51;;;;;;;;;;;;;;;22.22;nan;100311.03;4966812;28;19915;-86
2023/08/18 00:21:16;;;;;;;;;;;;;;;22.15;nan;100310.31;4967120;28;20391;-85
2023/08/18 00:23:43;;;;;;;;;;;;;;;22.13;nan;100312.41;4958417;29;20257;-87
2023/08/18 00:26:10;;;;;;;;;;;;;;;22.12;nan;100304.53;4958393;28;19918;-86
2023/08/18 00:28:35;;;;;;;;;;;;;;;22.10;nan;100301.28;4966452;28;19914;-85
2023/08/18 00:31:00;;;;;;;;;;;;;;;22.03;nan;100296.00;4968076;28;19924;-88
2023/08/18 00:33:25;;;;;;;;;;;;;;;22.00;nan;100307.22;4968017;28;19922;-85
2023/08/18 00:35:50;;;;;;;;;;;;;;;21.96;nan;100295.31;4979182;28;19914;-86
2023/08/18 00:38:15;;;;;;;;;;;;;;;21.93;nan;100296.59;4983213;28;20060;-85
2023/08/18 00:40:41;;;;;;;;;;;;;;;21.90;nan;100291.66;4963132;28;19914;-87
2023/08/18 00:43:06;;;;;;;;;;;;;;;21.89;nan;100295.41;4976054;28;19976;-84
2023/08/18 00:45:31;;;;;;;;;;;;;;;21.92;nan;100286.03;4969592;28;19973;-85
2023/08/18 00:47:56;;;;;;;;;;;;;;;21.95;nan;100289.09;4969099;28;19918;-85
2023/08/18 00:50:22;;;;;;;;;;;;;;;21.94;nan;100292.03;4964328;28;19914;-85
2023/08/18 00:52:52;;;;;;;;;;;;;;;21.94;nan;100286.63;4978413;28;19922;-85
2023/08/18 00:55:17;;;;;;;;;;;;;;;21.97;nan;100289.66;4978810;28;19914;-87
2023/08/18 00:57:43;;;;;;;;;;;;;;;22.01;nan;100282.78;4976858;28;19920;-85
2023/08/18 01:00:09;;;;;;;;;;;;;;;22.04;nan;100282.31;4977542;28;19933;-85
2023/08/18 01:02:34;;;;;;;;;;;;;;;22.05;nan;100275.06;4969868;28;19918;-85
2023/08/18 01:05:00;;;;;;;;;;;;;;;22.05;nan;100275.06;4993319;28;19921;-86
2023/08/18 01:07:26;;;;;;;;;;;;;;;22.04;nan;100271.53;4993668;28;19988;-87
2023/08/18 01:09:51;;;;;;;;;;;;;;;22.04;nan;100270.72;4978978;28;19914;-86
2023/08/18 01:12:22;;;;;;;;;;;;;;;21.97;nan;100260.06;4992761;28;19914;-86
2023/08/18 01:14:59;;;;;;;;;;;;;;;21.95;nan;100250.56;4992140;28;19922;-87
2023/08/18 01:17:34;;;;;;;;;;;;;;;21.96;nan;100268.38;4969755;28;19925;-86
2023/08/18 01:19:59;;;;;;;;;;;;;;;22.03;nan;100261.00;4977476;28;20261;-85
2023/08/18 01:22:25;;;;;;;;;;;;;;;21.94;nan;100251.63;4992410;28;20177;-85
2023/08/18 01:24:57;;;;;;;;;;;;;;;21.84;nan;100265.69;4978930;28;20264;-86
2023/08/18 01:27:22;;;;;;;;;;;;;;;21.69;nan;100252.69;4978618;28;19918;-87
2023/08/18 01:29:47;;;;;;;;;;;;;;;21.60;nan;100262.13;4974563;28;19929;-85
2023/08/18 01:32:13;;;;;;;;;;;;;;;21.53;nan;100264.91;4965251;28;19914;-86
2023/08/18 01:34:40;;;;;;;;;;;;;;;21.53;nan;100264.91;4958582;29;19914;-87
2023/08/18 01:37:05;;;;;;;;;;;;;;;21.50;nan;100259.16;4958244;29;20376;-85
2023/08/18 01:39:31;;;;;;;;;;;;;;;21.42;nan;100255.75;4969631;28;19929;-86
2023/08/18 01:41:56;;;;;;;;;;;;;;;21.34;nan;100266.00;4990617;28;19921;-85
2023/08/18 01:44:21;;;;;;;;;;;;;;;21.27;nan;100259.91;4972811;28;19922;-86
2023/08/18 01:46:47;;;;;;;;;;;;;;;21.20;nan;100250.06;4972361;28;20000;-87
2023/08/18 01:49:12;;;;;;;;;;;;;;;21.19;nan;100253.81;4973661;28;19937;-86
2023/08/18 01:51:37;;;;;;;;;;;;;;;;;;4971837;28;20383;-86
2023/08/18 01:54:03;;;;;;;;;;;;;;;21.43;nan;100253.91;4971907;28;19925;-86
2023/08/18 01:56:28;;;;;;;;;;;;;;;21.52;nan;100257.06;4972921;28;20376;-86
2023/08/18 01:58:53;;;;;;;;;;;;;;;21.52;nan;100251.69;4971790;28;19921;-86
2023/08/18 02:01:18;;;;;;;;;;;;;;;21.49;nan;100246.78;4956608;28;19966;-86
2023/08/18 02:03:43;;;;;;;;;;;;;;;21.51;nan;100245.50;4952023;28;19915;-86
2023/08/18 02:06:08;;;;;;;;;;;;;;;21.54;nan;100244.22;4953990;28;19921;-86
2023/08/18 02:08:34;;;;;;;;;;;;;;;21.53;nan;100231.81;4970234;28;20384;-89
2023/08/18 02:11:02;;;;;;;;;;;;;;;21.59;nan;100247.03;4988707;28;20303;-85
2023/08/18 02:13:28;;;;;;;;;;;;;;;21.60;nan;100244.13;4972056;28;19922;-88
2023/08/18 02:15:54;;;;;;;;;;;;;;;21.63;nan;100240.13;4972535;28;19920;-86
2023/08/18 02:18:19;;;;;;;;;;;;;;;21.68;nan;100240.25;4972980;28;19921;-86
2023/08/18 02:20:44;;;;;;;;;;;;;;;21.67;nan;100249.41;4988195;28;19918;-85
2023/08/18 02:23:09;;;;;;;;;;;;;;;21.70;nan;100242.72;4971226;28;20374;-87
2023/08/18 02:25:34;;;;;;;;;;;;;;;21.71;nan;100234.41;4967186;28;19914;-87
2023/08/18 02:27:59;;;;;;;;;;;;;;;21.69;nan;100238.38;4987064;28;19914;-85
2023/08/18 02:30:25;;;;;;;;;;;;;;;21.66;nan;100231.59;4972513;28;19928;-86
2023/08/18 02:32:50;;;;;;;;;;;;;;;21.62;nan;100235.81;4972293;28;19973;-86
2023/08/18 02:35:15;;;;;;;;;;;;;;;21.54;nan;100238.84;4970583;28;19918;-89
2023/08/18 02:37:40;;;;;;;;;;;;;;;21.48;nan;100240.59;4959169;28;20005;-86
2023/08/18 02:40:06;;;;;;;;;;;;;;;21.46;nan;100241.88;4966352;28;19921;-87
2023/08/18 02:42:33;;;;;;;;;;;;;;;21.40;nan;100239.06;4976016;28;20378;-88
2023/08/18 02:44:58;;;;;;;;;;;;;;;21.38;nan;100240.28;4975272;28;19914;-86
2023/08/18 02:47:24;;;;;;;;;;;;;;;21.32;nan;100244.72;4974857;28;19914;-86
2023/08/18 02:49:51;;;;;;;;;;;;;;;21.22;nan;100236.38;4964370;28;20431;-86
2023/08/18 02:52:16;;;;;;;;;;;;;;;21.15;nan;100235.66;4975730;28;19921;-86
2023/08/18 02:54:41;;;;;;;;;;;;;;;21.09;nan;100231.19;4975858;28;20387;-85
2023/08/18 02:57:06;;;;;;;;;;;;;;;21.02;nan;100238.53;4990565;28;19918;-86
2023/08/18 02:59:31;;;;;;;;;;;;;;;20.93;nan;100228.09;4974338;28;19914;-85
2023/08/18 03:01:56;;;;;;;;;;;;;;;20.87;nan;100234.38;4976445;28;19918;-86
2023/08/18 03:04:22;;;;;;;;;;;;;;;20.78;nan;100236.56;4977199;28;20316;-87
2023/08/18 03:06:47;;;;;;;;;;;;;;;20.73;nan;100233.72;4977244;28;20010;-85
2023/08/18 03:09:12;;;;;;;;;;;;;;;20.69;nan;100237.06;4981096;28;20281;-88
2023/08/18 03:11:37;;;;;;;;;;;;;;;20.60;nan;100228.53;4982964;28;19929;-85
2023/08/18 03:14:04;;;;;;;;;;;;;;;20.50;nan;100233.56;4981826;28;19972;-87
2023/08/18 03:16:30;;;;;;;;;;;;;;;20.41;nan;100234.91;4988896;28;19982;-85
2023/08/18 03:18:55;;;;;;;;;;;;;;;20.33;nan;100238.69;4995950;28;19965;-85
2023/08/18 03:21:20;;;;;;;;;;;;;;;20.24;nan;100240.06;4996242;28;19914;-86
2023/08/18 03:23:45;;;;;;;;;;;;;;;20.15;nan;100237.66;4996909;28;19920;-85
2023/08/18 03:26:10;;;;;;;;;;;;;;;20.07;nan;100240.63;4981715;28;19914;-85
2023/08/18 03:28:36;;;;;;;;;;;;;;;20.01;nan;100229.94;4982040;28;20008;-85
2023/08/18 03:31:02;;;;;;;;;;;;;;;19.98;nan;100219.66;4974685;28;19922;-86
2023/08/18 03:33:27;;;;;;;;;;;;;;;19.92;nan;100232.09;4961258;29;20373;-86
2023/08/18 03:35:53;;;;;;;;;;;;;;;19.94;nan;100230.00;4962739;28;19918;-85
2023/08/18 03:38:18;;;;;;;;;;;;;;;19.97;nan;100228.75;4961276;28;20372;-86
2023/08/18 03:40:43;;;;;;;;;;;;;;;20.04;nan;100224.94;4977603;28;19998;-87
2023/08/18 03:43:08;;;;;;;;;;;;;;;20.10;nan;100224.06;4972751;28;19918;-85
2023/08/18 03:45:35;;;;;;;;;;;;;;;20.15;nan;100226.09;4972270;28;19921;-86
2023/08/18 03:48:00;;;;;;;;;;;;;;;20.15;nan;100232.28;4995571;28;20408;-86
2023/08/18 03:50:25;;;;;;;;;;;;;;;20.07;nan;100234.41;4966855;28;20327;-86
2023/08/18 03:52:50;;;;;;;;;;;;;;;20.03;nan;100231.38;4979271;28;19972;-85
2023/08/18 03:55:17;;;;;;;;;;;;;;;20.06;nan;100238.97;4980235;28;20080;-85
2023/08/18 03:57:43;;;;;;;;;;;;;;;20.00;nan;100231.81;4974907;28;20085;-86
2023/08/18 04:00:11;;;;;;;;;;;;;;;19.90;nan;100235.00;4975672;28;19914;-85
2023/08/18 04:02:36;;;;;;;;;;;;;;;19.82;nan;100237.13;4980503;28;19981;-87
2023/08/18 04:05:02;;;;;;;;;;;;;;;19.79;nan;100237.59;4981064;28;20372;-86
2023/08/18 04:07:27;;;;;;;;;;;;;;;19.76;nan;100233.47;4980757;28;19964;-86
2023/08/18 04:09:52;;;;;;;;;;;;;;;19.75;nan;100237.19;4979786;28;19937;-87
2023/08/18 04:12:17;;;;;;;;;;;;;;;19.87;nan;100237.28;4975637;28;19922;-85
2023/08/18 04:14:43;;;;;;;;;;;;;;;20.00;nan;100239.03;4971858;28;19918;-85
2023/08/18 04:17:08;;;;;;;;;;;;;;;20.12;nan;100248.03;4978588;28;19973;-85
2023/08/18 04:19:34;;;;;;;;;;;;;;;20.14;nan;100249.44;4978582;28;19914;-85
2023/08/18 04:21:59;;;;;;;;;;;;;;;20.11;nan;100244.50;4979131;28;19921;-86
2023/08/18 04:24:24;;;;;;;;;;;;;;;;;;4993429;28;20341;-86
2023/08/18 04:26:52;;;;;;;;;;;;;;;19.96;nan;100240.53;4978277;28;19918;-88
2023/08/18 04:29:17;;;;;;;;;;;;;;;19.90;nan;100239.53;4972281;28;19914;-86
2023/08/18 04:31:42;;;;;;;;;;;;;;;19.94;nan;100246.91;4966867;28;19914;-85
2023/08/18 04:34:08;;;;;;;;;;;;;;;19.95;nan;100242.41;4959581;28;19954;-86
2023/08/18 04:36:33;;;;;;;;;;;;;;;19.87;nan;100251.53;4961000;28;19934;-85
2023/08/18 04:38:58;;;;;;;;;;;;;;;19.79;nan;100237.59;4961557;28;20368;-87
2023/08/18 04:41:24;;;;;;;;;;;;;;;19.67;nan;100246.31;4971766;28;19918;-85
2023/08/18 04:43:50;;;;;;;;;;;;;;;19.60;nan;100242.84;4994723;28;19914;-85
2023/08/18 04:46:15;;;;;;;;;;;;;;;19.56;nan;100254.22;4995439;28;19937;-85
2023/08/18 04:48:40;;;;;;;;;;;;;;;19.50;nan;100255.94;4974913;28;20484;-86
2023/08/18 04:51:05;;;;;;;;;;;;;;;19.41;nan;100263.41;4970884;28;20450;-85
2023/08/18 04:53:31;;;;;;;;;;;;;;;19.36;nan;100254.38;4978375;28;20216;-85
2023/08/18 04:55:56;;;;;;;;;;;;;;;19.35;nan;100252.72;4977812;28;19914;-85
2023/08/18 04:58:21;;;;;;;;;;;;;;;19.37;nan;100251.47;4970358;28;19933;-86
2023/08/18 05:00:46;;;;;;;;;;;;;;;19.40;nan;100247.53;4994636;28;19917;-86
2023/08/18 05:03:11;;;;;;;;;;;;;;;19.41;nan;100247.31;4978018;28;19959;-85
2023/08/18 05:06:02;;;;;;;;;;;;;;;19.42;nan;100258.84;4978236;28;19994;-86
2023/08/18 05:08:28;;;;;;;;;;;;;;;19.41;nan;100258.03;4966578;28;19914;-85
2023/08/18 05:10:55;;;;;;;;;;;;;;;19.43;nan;100257.84;4978316;28;20199;-86
2023/08/18 05:13:20;;;;;;;;;;;;;;;19.44;nan;100246.06;4989445;28;19952;-87
2023/08/18 05:15:45;;;;;;;;;;;;;;;19.50;nan;100247.88;4968233;28;19933;-85
2023/08/18 05:18:10;;;;;;;;;;;;;;;19.59;nan;100245.75;4982828;28;20340;-85
2023/08/18 05:20:35;;;;;;;;;;;;;;;19.77;nan;100248.53;4976938;28;19917;-85
2023/08/18 05:23:01;;;;;;;;;;;;;;;20.00;nan;100245.25;4991534;28;19922;-86
2023/08/18 05:25:26;;;;;;;;;;;;;;;20.25;nan;100247.06;4991434;28;19921;-86
2023/08/18 05:27:51;;;;;;;;;;;;;;;20.46;nan;100253.88;4974180;28;20007;-85
2023/08/18 05:30:17;;;;;;;;;;;;;;;20.67;nan;100261.50;4977116;28;20287;-86
2023/08/18 05:32:42;;;;;;;;;;;;;;;20.92;nan;100255.19;4960088;28;19978;-86
2023/08/18 05:35:10;;;;;;;;;;;;;;;21.18;nan;100268.28;4957261;28;19918;-86
2023/08/18 05:37:35;;;;;;;;;;;;;;;21.38;nan;100273.41;4955057;29;20390;-86
2023/08/18 05:40:00;;;;;;;;;;;;;;;21.55;nan;100278.97;4956559;28;19915;-86
2023/08/18 05:42:25;;;;;;;;;;;;;;;21.76;nan;100290.22;4955005;28;20006;-85
2023/08/18 05:44:50;;;;;;;;;;;;;;;22.05;nan;100288.53;4964728;28;19919;-85
2023/08/18 05:47:15;;;;;;;;;;;;;;;22.23;nan;100285.72;4975791;28;19969;-86
2023/08/18 05:49:41;;;;;;;;;;;;;;;22.48;nan;100287.38;4966012;28;19914;-85
2023/08/18 05:52:06;;;;;;;;;;;;;;;22.70;nan;100284.88;4974463;28;19914;-86
2023/08/18 05:54:31;;;;;;;;;;;;;;;22.99;nan;100298.41;4977388;28;19925;-86
2023/08/18 05:56:56;;;;;;;;;;;;;;;23.38;nan;100307.53;4976680;28;19941;-86
2023/08/18 05:59:21;;;;;;;;;;;;;;;23.83;nan;100306.72;4975549;28;19914;-86
2023/08/18 06:01:47;;;;;;;;;;;;;;;24.26;nan;100315.22;4969721;28;19974;-85
2023/08/18 06:04:12;;;;;;;;;;;;;;;24.67;nan;100319.34;4972321;28;20610;-86
2023/08/18 06:06:37;;;;;;;;;;;;;;;25.03;nan;100314.38;4976930;28;19914;-85
2023/08/18 06:09:02;;;;;;;;;;;;;;;25.28;nan;100329.31;4976715;28;19978;-85
2023/08/18 06:11:28;;;;;;;;;;;;;;;25.49;nan;100324.91;4974694;28;19918;-86
2023/08/18 06:13:53;;;;;;;;;;;;;;;25.64;nan;100333.19;4974996;28;19918;-86
2023/08/18 06:16:18;;;;;;;;;;;;;;;25.76;nan;100330.31;4976956;28;19918;-86
2023/08/18 06:18:43;;;;;;;;;;;;;;;25.88;nan;100327.47;4973997;28;20022;-85
2023/08/18 06:21:08;;;;;;;;;;;;;;;25.93;nan;100341.03;4975112;28;19921;-86
2023/08/18 06:23:34;;;;;;;;;;;;;;;25.96;nan;100340.56;4994680;28;19913;-86
2023/08/18 06:25:59;;;;;;;;;;;;;;;26.19;nan;100336.63;4979785;28;20283;-88
2023/08/18 06:28:25;;;;;;;;;;;;;;;26.40;nan;100324.03;4979808;28;20010;-86
2023/08/18 06:30:50;;;;;;;;;;;;;;;26.67;nan;100330.22;4973012;28;19918;-85
2023/08/18 06:33:19;;;;;;;;;;;;;;;27.02;nan;100331.44;4975658;28;19919;-87
2023/08/18 06:35:47;;;;;;;0.00;0.00;;;;;;;27.42;nan;100354.38;4989729;28;19915;-87
2023/08/18 06:38:16;;;;;;;0.00;0.00;;;;;;;;;;4959512;28;20364;-86
2023/08/18 06:40:44;;;;;;;0.00;0.00;;;;;;;28.14;nan;100347.13;4974240;28;20544;-85
2023/08/18 06:43:10;;;;;;;0.00;0.00;;;;;;;28.36;nan;100352.28;4957894;29;20031;-85
2023/08/18 06:45:35;;;;;;;0.00;0.00;;;;;;;;;;4958875;28;20397;-86
2023/08/18 06:48:00;;;;;;;0.00;0.00;;;;;;;28.90;nan;100330.94;4958592;28;20411;-86
2023/08/18 06:50:25;;;;;;;0.00;0.00;;;;;;;;;;4961146;28;20126;-86
2023/08/18 06:52:50;;;;;;;0.00;0.00;;;;;;;;;;4969552;28;20059;-86
2023/08/18 06:55:15;;;;;;;0.00;0.00;;;;;;;;;;4976433;28;20047;-85
2023/08/18 06:57:41;;;;;;;0.00;0.00;;;;;;;29.79;nan;100364.50;4976230;28;20423;-86
2023/08/18 07:00:09;;;;;;;0.00;0.00;;;;;;;30.26;nan;100367.69;4975216;28;20501;-86
2023/08/18 07:02:35;;;;;;;0.00;0.00;;;;;;;;;;4977078;28;20035;-85
2023/08/18 07:05:00;;;;;;;0.00;0.00;;;;;;;;;;4975410;28;20093;-85
2023/08/18 07:07:25;;;;;;;0.00;0.00;;;;;;;;;;4977160;28;20027;-84
2023/08/18 07:09:50;;;;;;;0.00;0.00;;;;;;;;;;4972747;28;20041;-86
2023/08/18 07:12:16;;;;;;;0.00;0.00;;;;;;;;;;4981644;28;20122;-86
2023/08/18 07:14:41;;;;;;;0.00;0.00;;;;;;;;;;4979381;28;20429;-86
2023/08/18 07:17:07;;;;;;;0.00;0.00;;;;;;;;;;4979784;28;20377;-87
2023/08/18 07:19:32;;;;;;;0.00;0.00;;;;;;;;;;4980687;28;20047;-86
2023/08/18 07:21:57;;;;;;;0.00;0.00;;;;;;;;;;4979849;28;20125;-86
2023/08/18 07:24:22;;;;;;;0.00;0.00;;;;;;;;;;4976380;28;20333;-86
2023/08/18 07:26:48;;;;;;;0.00;0.00;;;;;;;31.29;nan;100372.81;4970613;28;20286;-85
2023/08/18 07:29:13;;;;;;;0.00;0.00;;;;;;;;;;4977328;28;20037;-86
2023/08/18 07:31:38;;;;;;;0.00;0.00;;;;;;;31.62;nan;100372.94;4963850;28;20059;-86
2023/08/18 07:34:03;;;;;;;0.00;0.00;;;;;;;32.05;nan;100361.88;4958169;29;20495;-85
2023/08/18 07:36:29;;;;;;;0.00;0.00;;;;;;;;;;4962976;28;20038;-84
2023/08/18 07:38:54;;;;;;;0.00;0.00;;;;;;;;;;4973595;28;20370;-85
2023/08/18 07:41:19;;;;;;;0.00;0.00;;;;;;;32.99;nan;100380.66;4958650;28;20070;-84
2023/08/18 07:43:45;;;;;;;0.00;0.00;;;;;;;32.97;nan;100379.34;4958141;28;20035;-84
2023/08/18 07:46:10;;;;;;;0.00;0.00;;;;;;;33.11;nan;100384.81;4956080;28;20046;-88
2023/08/18 07:48:37;;;;;;;0.00;0.00;;;;;;;33.50;nan;100359.56;4957478;28;20263;-84
2023/08/18 07:51:02;;;;;;;0.00;0.00;;;;;;;33.59;nan;100393.38;4965389;28;20041;-86
2023/08/18 07:53:27;;;;;;;0.00;0.00;;;;;;;;;;4964765;28;20035;-84
2023/08/18 07:55:53;;;;;;;0.00;0.00;;;;;;;34.09;nan;100394.44;4957226;28;20035;-84
2023/08/18 07:58:18;;;;;;;0.00;0.00;;;;;;;34.25;nan;100436.81;4956004;28;20332;-84
2023/08/18 08:00:43;;;;;;;0.00;0.00;;;;;;;;;;4956286;29;20039;-85
2023/08/18 08:03:08;;;;;;;0.00;0.00;;;;;;;;;;4984092;28;20357;-86
2023/08/18 08:05:34;;;;;;;0.00;0.00;;;;;;;;;;4969148;28;20270;-84
2023/08/18 08:07:59;;;;;;;0.00;0.00;;;;;;;34.54;nan;100388.84;4974020;28;20031;-86
2023/08/18 08:10:24;;;;;;;0.00;0.00;;;;;;;34.77;nan;100395.09;4965906;28;21341;-85
2023/08/18 08:12:50;;;;;;;0.00;0.00;;;;;;;34.79;nan;100401.91;4975117;28;20035;-84
2023/08/18 08:15:17;;;;;;;0.00;0.00;;;;;;;35.02;nan;100404.56;4966564;28;20500;-86
2023/08/18 08:17:42;;;;;;;0.00;0.00;;;;;;;35.32;nan;100386.38;4975410;28;20057;-86
2023/08/18 08:20:14;;;;;;;0.00;0.00;;;;;;;35.36;nan;100431.34;4975811;28;20094;-85
2023/08/18 08:22:39;;;;;;;0.00;0.00;;;;;;;35.42;nan;100419.06;4975337;28;20035;-85
2023/08/18 08:25:05;;;;;;;0.00;0.00;;;;;;;;;;4975417;28;20039;-85
2023/08/18 08:27:33;;;;;;;0.00;0.00;;;;;;;35.68;nan;100396.28;4972715;28;20043;-85
2023/08/18 08:29:59;;;;;;;0.00;0.00;;;;;;;35.82;nan;100399.66;4969015;28;20031;-85
2023/08/18 08:32:24;;;;;;;0.00;0.00;;;;;;;36.09;nan;100382.03;4958562;28;20358;-85
2023/08/18 08:34:50;;;;;;;0.00;0.00;;;;;;;35.91;nan;100408.72;4955666;29;20132;-84
2023/08/18 08:37:17;;;;;;;0.00;0.00;;;;;;;36.08;nan;100412.59;4957822;28;20040;-87
2023/08/18 08:39:42;;;;;;;0.00;0.00;;;;;;;36.42;nan;100408.97;4971568;28;20138;-87
2023/08/18 08:42:08;;;;;;;0.00;0.00;;;;;;;36.84;nan;100397.34;4955269;28;20071;-85
2023/08/18 08:44:34;;;;;;;0.00;0.00;;;;;;;37.12;nan;100395.72;4971102;28;20644;-84
2023/08/18 08:47:02;;;;;;;0.00;0.00;;;;;;;37.28;nan;100393.22;4967619;28;20038;-85
2023/08/18 08:49:30;;;;;;;0.00;0.00;;;;;;;37.33;nan;100401.28;4966879;28;20309;-85
2023/08/18 08:52:02;;;;;;;0.00;0.00;;;;;;;37.71;nan;100433.47;4990607;28;20143;-84
2023/08/18 08:54:28;;;;;;;0.00;0.00;;;;;;;;;;4974508;28;20563;-86
2023/08/18 08:56:53;;;;;;;0.00;0.00;;;;;;;;;;4973496;28;20408;-85
2023/08/18 08:59:19;;;;;;;0.00;0.00;;;;;;;38.55;nan;100405.69;4964382;28;20780;-85
2023/08/18 09:01:46;;;;;;;;;;;;;;;39.06;nan;100408.91;4975127;28;20392;-86
2023/08/18 09:04:11;;;;;;;;;;;;;;;39.17;nan;100414.00;4988687;28;19921;-86
2023/08/18 09:06:36;;;;;;;;;;;;;;;38.69;nan;100399.00;4973545;28;19918;-85
2023/08/18 09:09:02;;;;;;;;;;;;;;;38.19;nan;100404.44;4973334;28;19914;-86
2023/08/18 09:11:39;;;;;;;;;;;;;;;38.12;nan;100406.97;4974308;28;19920;-85
2023/08/18 09:14:04;;;;;;;;;;;;;;;38.25;nan;100411.34;4971906;28;19918;-85
2023/08/18 09:16:30;;;;;;;;;;;;;;;38.54;nan;100408.78;4971232;28;19929;-86
2023/08/18 09:18:55;;;;;;;;;;;;;;;39.04;nan;100405.69;4966675;28;19949;-85
2023/08/18 09:21:22;;;;;;;;;;;;;;;39.22;nan;100405.47;4969715;28;19946;-86
2023/08/18 09:23:53;;;;;;;;;;;;;;;39.00;nan;100407.56;4988619;28;19929;-85
2023/08/18 09:26:18;;;;;;;;;;;;;;;39.57;nan;100410.44;4973157;28;19914;-84
2023/08/18 09:28:44;;;;;;;;;;;;;;;40.49;nan;100403.09;4988671;28;19914;-85
2023/08/18 09:31:09;;;;;;;;;;;;;;;41.06;nan;100403.69;4982374;28;20559;-85
2023/08/18 09:33:34;;;;;;;;;;;;;;;41.51;nan;100396.75;4965891;28;19933;-87
2023/08/18 09:35:59;;;;;;;;;;;;;;;41.71;nan;100394.78;4963967;28;19914;-85
2023/08/18 09:38:25;;;;;;;;;;;;;;;41.91;nan;100396.38;4972642;28;19961;-87
2023/08/18 09:40:55;;;;;;;;;;;;;;;41.91;nan;100393.59;4973503;28;19985;-85
2023/08/18 09:43:20;;;;;;;;;;;;;;;42.21;nan;100376.28;4973831;28;19925;-85
2023/08/18 09:45:46;;;;;;;;;;;;;;;42.17;nan;100392.13;4990097;28;19914;-85
2023/08/18 09:48:13;;;;;;;;;;;;;;;42.11;nan;100388.03;4967234;28;19918;-85
2023/08/18 09:50:39;;;;;;;;;;;;;;;42.08;nan;100383.22;4964753;28;19914;-85
2023/08/18 09:53:07;;;;;;;;;;;;;;;42.30;nan;100382.41;4980192;28;19945;-85
2023/08/18 09:55:38;;;;;;;;;;;;;;;42.73;nan;100385.91;4980054;28;20392;-85
2023/08/18 09:58:03;;;;;;;;;;;;;;;42.93;nan;100383.03;4994803;28;19921;-85
2023/08/18 10:00:29;;;;;;;;;;;;;;;42.70;nan;100385.88;4978043;28;19918;-85
2023/08/18 10:02:58;;;;;;;;;;;;;;;42.37;nan;100371.44;4976477;28;19924;-85
2023/08/18 10:05:24;;;;;;;;;;;;;;;42.62;nan;100380.19;4968991;28;19922;-87
2023/08/18 10:07:49;;;;;;;;;;;;;;;43.00;nan;100366.44;4991724;28;20185;-85
2023/08/18 10:10:14;;;;;;;;;;;;;;;43.09;nan;100375.31;4979749;28;19914;-85
2023/08/18 10:12:41;;;;;;;;;;;;;;;43.14;nan;100374.97;4983347;28;20367;-86
2023/08/18 10:15:07;;;;;;;0.00;0.00;;;;;;;;;;4996053;28;19914;-85
2023/08/18 10:17:32;;;;;;;0.00;0.00;;;;;;;;;;4993024;28;20480;-86
2023/08/18 10:20:00;;;;;;;0.00;0.00;;;;;;;;;;4977098;28;20447;-84
2023/08/18 10:22:26;;;;;;;0.00;0.00;;;;;;;;;;4961606;28;20456;-85
2023/08/18 10:24:52;;;;;;;0.00;0.00;;;;;;;;;;4958083;28;20924;-85
2023/08/18 10:27:27;;;;;;;0.00;0.00;;;;;;;;;;4958735;28;20545;-84
2023/08/18 10:29:57;;;;;;;0.00;0.00;;;;;;;;;;4959174;28;20423;-86
2023/08/18 10:32:23;;;;;;;0.03;0.03;;;;;;;44.66;nan;100386.56;4970731;28;20403;-88
2023/08/18 10:34:49;;;;;;;0.00;0.00;;;;;;;44.79;nan;100351.59;4974845;28;20039;-85
2023/08/18 10:37:14;;;;;;;;;;;;;;;44.60;nan;100355.47;4974401;28;20031;-86
2023/08/18 10:39:40;;;;;;;;;;;;;;;44.56;nan;100349.06;4964519;28;19940;-85
2023/08/18 10:42:15;;;;;;;;;;;;;;;45.04;nan;100340.59;4955914;28;19922;-85
2023/08/18 10:44:57;;;;;;;;;;;;;;;44.96;nan;100341.75;4957416;28;19915;-86
2023/08/18 10:47:29;;;;;;;;;;;;;;;45.47;nan;100346.34;4957858;28;20351;-85
2023/08/18 10:49:54;;;;;;;;;;;;;;;45.79;nan;100337.25;4957846;28;19993;-85
2023/08/18 10:52:20;;;;;;;;;;;;;;;46.01;nan;100335.34;4975024;28;20134;-85
2023/08/18 10:54:45;;;;;;;;;;;;;;;46.13;nan;100337.72;4967869;28;20292;-85
2023/08/18 10:57:10;;;;;;;;;;;;;;;46.37;nan;100335.34;4977604;28;19941;-85
2023/08/18 10:59:36;;;;;;;;;;;;;;;46.50;nan;100328.09;4978224;28;19925;-86
2023/08/18 11:02:01;;;;;;;;;;;;;;;46.61;nan;100328.91;4978254;28;19914;-85
2023/08/18 11:04:26;;;;;;;;;;;;;;;46.77;nan;100327.66;4978396;28;19914;-86
2023/08/18 11:06:51;;;;;;;;;;;;;;;46.39;nan;100328.16;4977972;28;19929;-85
2023/08/18 11:09:17;;;;;;;;;;;;;;;46.45;nan;100325.72;4985016;28;19925;-85
2023/08/18 11:11:43;;;;;;;;;;;;;;;46.55;nan;100329.69;4992301;28;19913;-87
2023/08/18 11:14:08;;;;;;;;;;;;;;;46.51;nan;100324.13;4963556;28;19922;-86
2023/08/18 11:16:34;;;;;;;;;;;;;;;46.39;nan;100321.75;4958317;28;20046;-85
2023/08/18 11:19:01;;;;;;;;;;;;;;;46.15;nan;100315.75;4957818;29;19941;-85
2023/08/18 11:21:27;;;;;;;;;;;;;;;46.49;nan;100320.16;4958217;28;19969;-85
2023/08/18 11:23:52;;;;;;;;;;;;;;;46.64;nan;100327.28;4956321;28;19992;-85
2023/08/18 11:26:17;;;;;;;;;;;;;;;46.91;nan;100312.84;4967788;28;19914;-86
2023/08/18 11:28:43;;;;;;;;;;;;;;;46.86;nan;100321.66;4963378;28;19918;-90
2023/08/18 11:31:10;;;;;;;;;;;;;;;46.97;nan;100311.22;4965372;28;19914;-86
2023/08/18 11:33:35;;;;;;;;;;;;;;;47.36;nan;100319.44;4974422;28;20324;-86
2023/08/18 11:36:00;;;;;;;;;;;;;;;47.23;nan;100304.31;4977449;28;20227;-87
2023/08/18 11:38:25;;;;;;;;;;;;;;;47.27;nan;100313.50;4974820;28;19918;-87
2023/08/18 11:40:50;;;;;;;;;;;;;;;47.51;nan;100302.56;4973980;28;20332;-85
2023/08/18 11:43:16;;;;;;;;;;;;;;;47.70;nan;100307.66;4964961;28;20300;-86
2023/08/18 11:45:41;;;;;;;;;;;;;;;46.99;nan;100309.59;4973198;28;20017;-86
2023/08/18 11:48:07;;;;;;;;;;;;;;;47.07;nan;100303.97;4988551;28;20446;-86
2023/08/18 11:50:33;;;;;;;;;;;;;;;46.99;nan;100304.00;4978908;28;20025;-86
2023/08/18 11:52:59;;;;;;;;;;;;;;;46.88;nan;100291.25;4956159;28;19933;-86
2023/08/18 11:55:34;;;;;;;;;;;;;;;46.96;nan;100298.41;4955685;29;19914;-86
2023/08/18 11:58:08;;;;;;;;;;;;;;;46.55;nan;100287.75;4955618;28;19972;-85
2023/08/18 12:00:35;;;;;;;;;;;;;;;46.43;nan;100288.19;4955646;28;19915;-86
2023/08/18 12:03:02;;;;;;;;;;;;;;;46.02;nan;100278.22;4971510;28;19968;-86
2023/08/18 12:05:28;;;;;;;;;;;;;;;45.50;nan;100272.94;4972294;28;19961;-86
2023/08/18 12:07:53;;;;;;;;;;;;;;;44.68;nan;100273.44;4952573;28;19958;-86
2023/08/18 12:10:19;;;;;;;;;;;;;;;43.71;nan;100269.09;4953829;28;20001;-86
2023/08/18 12:12:49;;;;;;;;;;;;;;;42.92;nan;100261.81;4953378;28;19915;-86
2023/08/18 12:15:14;;;;;;;;;;;;;;;42.41;nan;100268.66;4952625;29;20007;-85
2023/08/18 12:17:39;;;;;;;;;;;;;;;41.85;nan;100261.75;4952835;29;19914;-86
2023/08/18 12:20:06;;;;;;;;;;;;;;;41.20;nan;100256.19;4966817;28;20368;-86
2023/08/18 12:22:32;;;;;;;;;;;;;;;40.54;nan;100248.41;4986497;28;19918;-85
2023/08/18 12:24:57;;;;;;;;;;;;;;;40.07;nan;100251.25;4965309;28;19932;-86
2023/08/18 12:27:26;;;;;;;;;;;;;;;39.63;nan;100254.06;4980129;28;19916;-86
2023/08/18 12:29:51;;;;;;;;;;;;;;;39.44;nan;100269.38;4972305;28;20364;-87
2023/08/18 12:32:16;;;;;;;;;;;;;;;39.15;nan;100265.00;4958436;28;19969;-86
2023/08/18 12:34:42;;;;;;;;;;;;;;;38.60;nan;100261.78;4951873;29;20013;-85
2023/08/18 12:37:07;;;;;;;;;;;;;;;38.24;nan;100257.84;4953330;28;19989;-86
2023/08/18 12:39:38;;;;;;;;;;;;;;;37.32;nan;100258.19;4953332;28;19939;-86
2023/08/18 12:42:04;;;;;;;;;;;;;;;37.30;nan;100252.22;4953452;28;20096;-85
2023/08/18 12:44:29;;;;;;;;;;;;;;;37.06;nan;100252.91;4965759;28;19922;-84
2023/08/18 12:46:54;;;;;;;;;;;;;;;36.96;nan;100256.84;4958878;28;19919;-87
2023/08/18 12:49:19;;;;;;;;;;;;;;;36.82;nan;100331.53;4962903;28;19969;-84
2023/08/18 12:51:44;;;;;;;;;;;;;;;36.73;nan;100323.31;4956086;28;19914;-84